Terminal Aerodrome Forecast
Issued by NWS

Home | Current Version | Previous Version | Text Only | Print | Product List | Glossary On
Versions: 1 2 3 4 5 6 7 8 9 10 11 12 13
000
FTPA31 PHFO 142334
TAFHJH
TAF
PHJH 142334Z 1500/1524 03023G31KT P6SM VCSH SCT030 BKN040
     FM150500 03017KT P6SM VCSH SCT030 BKN040
     FM152000 04021G29KT P6SM VCSH SCT030 BKN040=

USA.gov is the U.S. government's official web portal to all federal, state and local government web resources and services.